Time;durP1;ratioP1;P1;durP2;ratioP2;P2;SDS_P1;SDS_P2;PMS_P1;PMS_P2;Temp;Humidity;BMP_temperature;BMP_pressure;BME280_temperature;BME280_humidity;BME280_pressure;Samples;Min_cycle;Max_cycle;Signal;HPM_P1;HPM_P2
2022/12/17 13:07:00;;;;;;;;;;;10.50;99.90;;;;;;4919960;29;19922;-71
2022/12/17 13:09:32;;;;;;;;;;;10.80;99.90;;;;;;4917789;29;19927;-71
2022/12/17 13:12:10;;;;;;;;;;;10.60;99.90;;;;;;4925136;29;19937;-71
2022/12/17 13:14:47;;;;;;;;;;;10.40;99.90;;;;;;4921659;29;20025;-70
2022/12/17 13:17:21;;;;;;;;;;;10.00;99.90;;;;;;4924798;29;20473;-70
2022/12/17 13:19:58;;;;;;;;;;;9.50;99.90;;;;;;4918167;29;20441;-70
2022/12/17 13:22:28;;;;;;;;;;;8.70;99.90;;;;;;4924406;29;20476;-71
2022/12/17 13:24:56;;;;;;;;;;;9.50;99.90;;;;;;4934286;29;20013;-70
2022/12/17 13:27:28;;;;;;;;;;;8.90;99.90;;;;;;4923361;29;19974;-70
2022/12/17 13:29:54;;;;;;;;;;;8.30;99.90;;;;;;4935935;29;19982;-68
2022/12/17 13:32:23;;;;;;;;;;;8.60;99.90;;;;;;4922640;29;20122;-69
2022/12/17 13:34:54;;;;;;;;;;;9.00;99.90;;;;;;4920118;29;19931;-68
2022/12/17 13:37:26;;;;;;;;;;;8.30;99.90;;;;;;4922387;29;20155;-69
2022/12/17 13:39:57;;;;;;;;;;;6.30;99.90;;;;;;4917576;29;20342;-71
2022/12/17 13:42:28;;;;;;;;;;;6.30;99.90;;;;;;4939388;29;19931;-69
2022/12/17 13:44:56;;;;;;;;;;;6.70;99.90;;;;;;4923875;29;19927;-68
2022/12/17 13:47:24;;;;;;;;;;;6.70;99.90;;;;;;4927491;29;19942;-68
2022/12/17 13:49:52;;;;;;;;;;;6.60;99.90;;;;;;4917491;29;19935;-69
2022/12/17 13:52:20;;;;;;;;;;;6.70;99.90;;;;;;4919377;29;20021;-68
2022/12/17 13:54:47;;;;;;;;;;;7.10;99.90;;;;;;4923180;29;19935;-69
2022/12/17 13:57:15;;;;;;;;;;;6.70;99.90;;;;;;4922437;29;20354;-67
2022/12/17 13:59:48;;;;;;;;;;;5.40;99.90;;;;;;4922672;29;19930;-69
2022/12/17 14:02:23;;;;;;;;;;;4.30;99.90;;;;;;4920333;29;19941;-74
2022/12/17 14:04:51;;;;;;;;;;;3.50;99.90;;;;;;4918624;29;19935;-70
2022/12/17 14:07:18;;;;;;;;;;;3.00;99.90;;;;;;4911697;29;19926;-70
2022/12/17 14:09:45;;;;;;;;;;;3.10;99.90;;;;;;4924289;29;19927;-71
2022/12/17 14:12:20;;;;;;;;;;;3.20;99.90;;;;;;4921373;29;19927;-71
2022/12/17 14:14:50;;;;;;;;;;;3.00;99.90;;;;;;4924534;29;19939;-71
2022/12/17 14:17:18;;;;;;;;;;;2.50;99.90;;;;;;4923216;29;19927;-68
2022/12/17 14:19:45;;;;;;;;;;;2.20;99.90;;;;;;4919121;29;19927;-70
2022/12/17 14:22:16;;;;;;;;;;;1.90;99.90;;;;;;4923731;29;19984;-71
2022/12/17 14:24:43;;;;;;;;;;;1.50;99.90;;;;;;4917144;29;20433;-79
2022/12/17 14:27:21;;;;;;;;;;;1.50;99.90;;;;;;4924209;29;20348;-73
2022/12/17 14:29:49;;;;;;;;;;;1.70;99.90;;;;;;4914939;29;19927;-73
2022/12/17 14:32:22;;;;;;;;;;;1.90;99.90;;;;;;4919246;29;19934;-72
2022/12/17 14:34:49;;;;;;;;;;;2.20;99.90;;;;;;4916766;29;19991;-71
2022/12/17 14:37:17;;;;;;;;;;;2.40;99.90;;;;;;4919102;29;19950;-70
2022/12/17 14:39:44;;;;;;;;;;;2.40;99.90;;;;;;4913054;29;19987;-72
2022/12/17 14:42:28;;;;;;;;;;;2.60;99.90;;;;;;4923089;29;19983;-76
2022/12/17 14:44:57;;;;;;;;;;;2.80;99.90;;;;;;4918189;29;19974;-74
2022/12/17 14:47:25;;;;;;;;;;;3.00;99.90;;;;;;4917473;29;20394;-71
2022/12/17 14:49:56;;;;;;;;;;;3.50;99.90;;;;;;4918840;29;19931;-77
2022/12/17 14:52:30;;;;;;;;;;;3.70;99.90;;;;;;4923204;29;19931;-72
2022/12/17 14:54:57;;;;;;;;;;;3.60;99.90;;;;;;4923163;29;20022;-74
2022/12/17 14:57:24;;;;;;;;;;;3.50;99.90;;;;;;4920819;29;19927;-74
2022/12/17 14:59:51;;;;;;;;;;;3.10;99.90;;;;;;4919692;29;20287;-70
2022/12/17 15:02:22;;;;;;;;;;;2.50;99.90;;;;;;4919171;29;19962;-72
2022/12/17 15:04:50;;;;;;;;;;;1.80;99.90;;;;;;4923427;29;19962;-71
2022/12/17 15:07:20;;;;;;;;;;;1.40;99.90;;;;;;4918255;29;20310;-71
2022/12/17 15:09:47;;;;;;;;;;;0.90;99.90;;;;;;4923720;29;20395;-72
2022/12/17 15:12:14;;;;;;;;;;;0.50;99.90;;;;;;4925544;29;19927;-69
2022/12/17 15:14:41;;;;;;;;;;;0.10;99.90;;;;;;4921636;29;19927;-69
2022/12/17 15:17:07;;;;;;;;;;;-0.20;99.90;;;;;;4922360;29;20314;-71
2022/12/17 15:19:36;;;;;;;;;;;-0.50;99.90;;;;;;4914265;29;20343;-69
2022/12/17 15:22:03;;;;;;;;;;;-0.80;99.90;;;;;;4921205;29;19931;-67
2022/12/17 15:24:30;;;;;;;;;;;-1.10;99.90;;;;;;4920364;29;19960;-68
2022/12/17 15:26:57;;;;;;;;;;;-1.30;99.90;;;;;;4920853;29;19927;-69
2022/12/17 15:29:24;;;;;;;;;;;-1.50;99.90;;;;;;4921025;29;20358;-70
2022/12/17 15:31:51;;;;;;;;;;;-1.60;99.90;;;;;;4926572;29;19927;-70
2022/12/17 15:34:18;;;;;;;;;;;-1.70;99.90;;;;;;4921830;29;19931;-70
2022/12/17 15:36:46;;;;;;;;;;;-1.90;99.90;;;;;;4927193;29;19926;-69
2022/12/17 15:39:13;;;;;;;;;;;-2.00;99.90;;;;;;4914558;29;19999;-70
2022/12/17 15:44:24;;;;;;;;;;;-2.30;99.90;;;;;;4927668;29;19929;-72
2022/12/17 15:46:50;;;;;;;;;;;-2.40;99.90;;;;;;4916941;29;20394;-70
2022/12/17 15:49:17;;;;;;;;;;;-2.50;99.90;;;;;;4913296;29;20473;-70
2022/12/17 15:51:45;;;;;;;;;;;-2.50;99.90;;;;;;4915765;29;19934;-70
2022/12/17 15:54:12;;;;;;;;;;;-2.60;99.90;;;;;;4916506;29;20020;-70
2022/12/17 15:56:39;;;;;;;;;;;-2.70;99.90;;;;;;4912337;29;19935;-70
2022/12/17 15:59:05;;;;;;;;;;;-2.80;99.90;;;;;;4908808;29;19927;-70
2022/12/17 16:01:32;;;;;;;;;;;-2.80;99.90;;;;;;4922415;29;19934;-71
2022/12/17 16:03:59;;;;;;;;;;;-2.90;99.90;;;;;;4921539;29;19934;-70
2022/12/17 16:06:26;;;;;;;;;;;-3.00;99.90;;;;;;4915120;29;19930;-70
2022/12/17 16:08:55;;;;;;;;;;;-3.10;99.90;;;;;;4907871;29;19928;-70
2022/12/17 16:11:21;;;;;;;;;;;-3.20;99.90;;;;;;4913155;29;19927;-70
2022/12/17 16:13:52;;;;;;;;;;;-3.30;99.90;;;;;;4912922;29;19931;-70
2022/12/17 16:16:19;;;;;;;;;;;-3.40;99.90;;;;;;4921986;29;19928;-69
2022/12/17 16:18:46;;;;;;;;;;;-3.60;99.90;;;;;;4914589;29;19980;-70
2022/12/17 16:21:13;;;;;;;;;;;-3.60;99.90;;;;;;4918099;29;20010;-70
2022/12/17 16:23:39;;;;;;;;;;;-3.70;99.90;;;;;;4927479;29;19931;-69
2022/12/17 16:26:08;;;;;;;;;;;-3.60;99.90;;;;;;4924137;29;19926;-70
2022/12/17 16:28:35;;;;;;;;;;;-3.70;99.90;;;;;;4921169;29;19982;-69
2022/12/17 16:31:03;;;;;;;;;;;-3.70;99.90;;;;;;4923899;29;19931;-69
2022/12/17 16:33:31;;;;;;;;;;;-3.80;99.90;;;;;;4924478;29;20322;-69
2022/12/17 16:35:58;;;;;;;;;;;-3.80;99.90;;;;;;4928083;29;19933;-68
2022/12/17 16:38:25;;;;;;;;;;;-3.70;99.90;;;;;;4924339;29;19927;-69
2022/12/17 16:40:54;;;;;;;;;;;-3.80;99.90;;;;;;4922348;29;19927;-70
2022/12/17 16:43:22;;;;;;;;;;;-3.90;99.90;;;;;;4915848;29;20354;-69
2022/12/17 16:45:50;;;;;;;;;;;-4.00;99.90;;;;;;4914139;29;19927;-68
2022/12/17 16:48:18;;;;;;;;;;;-4.10;99.90;;;;;;4914190;29;19931;-68
2022/12/17 16:50:45;;;;;;;;;;;-4.20;99.90;;;;;;4919771;29;19970;-68
2022/12/17 16:53:12;;;;;;;;;;;-4.30;99.90;;;;;;4918823;29;19938;-68
2022/12/17 16:55:40;;;;;;;;;;;-4.40;99.90;;;;;;4924254;29;19927;-69
2022/12/17 16:58:06;;;;;;;;;;;-4.40;99.90;;;;;;4927787;29;19931;-69
2022/12/17 17:00:35;;;;;;;;;;;-4.50;99.90;;;;;;4930515;29;19970;-69
2022/12/17 17:03:02;;;;;;;;;;;-4.50;99.90;;;;;;4928185;29;19933;-69
2022/12/17 17:05:31;;;;;;;;;;;-4.50;99.90;;;;;;4926145;29;19978;-69
2022/12/17 17:07:58;;;;;;;;;;;-4.50;99.90;;;;;;4931731;29;20366;-69
2022/12/17 17:10:24;;;;;;;;;;;-4.50;99.90;;;;;;4925573;29;19935;-68
2022/12/17 17:12:51;;;;;;;;;;;-4.50;99.90;;;;;;4918302;29;20049;-67
2022/12/17 17:15:18;;;;;;;;;;;-4.40;99.90;;;;;;4924392;29;20393;-69
2022/12/17 17:17:46;;;;;;;;;;;-4.30;99.90;;;;;;4925500;29;20343;-69
2022/12/17 17:20:13;;;;;;;;;;;-4.40;99.90;;;;;;4929388;29;20358;-70
2022/12/17 17:22:40;;;;;;;;;;;-4.50;99.90;;;;;;4921957;29;19933;-69
2022/12/17 17:25:07;;;;;;;;;;;-4.70;99.90;;;;;;4923484;29;19927;-68
2022/12/17 17:27:34;;;;;;;;;;;-4.60;99.90;;;;;;4921085;29;19987;-69
2022/12/17 17:30:00;;;;;;;;;;;-4.60;99.90;;;;;;4925505;29;19927;-69
2022/12/17 17:32:27;;;;;;;;;;;-4.60;99.90;;;;;;4920577;29;19927;-69
2022/12/17 17:34:55;;;;;;;;;;;-4.50;99.90;;;;;;4925445;29;19938;-71
2022/12/17 17:37:22;;;;;;;;;;;-4.40;99.90;;;;;;4921421;29;20358;-69
2022/12/17 17:39:49;;;;;;;;;;;-4.50;99.90;;;;;;4921198;29;19934;-69
2022/12/17 17:42:15;;;;;;;;;;;-4.50;99.90;;;;;;4931611;29;19931;-67
2022/12/17 17:44:42;;;;;;;;;;;-4.50;99.90;;;;;;4916837;29;19928;-71
2022/12/17 17:47:09;;;;;;;;;;;-4.60;99.90;;;;;;4917411;29;19926;-70
2022/12/17 17:49:36;;;;;;;;;;;-4.60;99.90;;;;;;4916481;29;19927;-69
2022/12/17 17:52:04;;;;;;;;;;;-4.60;99.90;;;;;;4917118;29;20339;-71
2022/12/17 17:54:31;;;;;;;;;;;-4.60;99.90;;;;;;4924899;29;19966;-69
2022/12/17 17:56:58;;;;;;;;;;;-4.60;99.90;;;;;;4918211;29;19950;-69
2022/12/17 17:59:24;;;;;;;;;;;-4.60;99.90;;;;;;4927844;29;19935;-71
2022/12/17 18:01:51;;;;;;;;;;;-4.50;99.90;;;;;;4918664;29;19935;-72
2022/12/17 18:04:19;;;;;;;;;;;-4.50;99.90;;;;;;4927785;29;19931;-68
2022/12/17 18:06:46;;;;;;;;;;;-4.50;99.90;;;;;;4917731;29;19931;-68
2022/12/17 18:09:14;;;;;;;;;;;-4.50;99.90;;;;;;4923178;29;20335;-70
2022/12/17 18:11:42;;;;;;;;;;;-4.50;99.90;;;;;;4917337;29;19927;-69
2022/12/17 18:14:10;;;;;;;;;;;-4.40;99.90;;;;;;4926865;29;19934;-71
2022/12/17 18:16:38;;;;;;;;;;;-4.30;99.90;;;;;;4927797;29;20402;-68
2022/12/17 18:19:06;;;;;;;;;;;-4.30;99.90;;;;;;4911391;29;19931;-68
2022/12/17 18:21:33;;;;;;;;;;;-4.30;99.90;;;;;;4908625;29;19927;-69
2022/12/17 18:24:01;;;;;;;;;;;-4.30;99.90;;;;;;4916237;29;19982;-69
2022/12/17 18:26:30;;;;;;;;;;;-4.40;99.90;;;;;;4920735;29;19927;-69
2022/12/17 18:29:01;;;;;;;;;;;-4.40;99.90;;;;;;4921817;29;19927;-68
2022/12/17 18:31:28;;;;;;;;;;;-4.30;99.90;;;;;;4922295;29;19927;-69
2022/12/17 18:33:56;;;;;;;;;;;-4.40;99.90;;;;;;4919821;29;19931;-69
2022/12/17 18:36:24;;;;;;;;;;;-4.50;99.90;;;;;;4920467;29;19927;-69
2022/12/17 18:38:55;;;;;;;;;;;-4.50;99.90;;;;;;4919816;29;20366;-67
2022/12/17 18:44:08;;;;;;;;;;;-4.60;99.90;;;;;;4924531;29;20700;-69
2022/12/17 18:46:35;;;;;;;;;;;-4.60;99.90;;;;;;4921281;29;19927;-68
2022/12/17 18:49:03;;;;;;;;;;;-4.60;99.90;;;;;;4926193;29;19927;-69
2022/12/17 18:51:32;;;;;;;;;;;-4.60;99.90;;;;;;4901341;29;20495;-71
2022/12/17 18:53:59;;;;;;;;;;;-4.70;99.90;;;;;;4918738;29;19927;-71
2022/12/17 18:56:26;;;;;;;;;;;-4.80;99.90;;;;;;4918317;29;20393;-69
2022/12/17 18:58:53;;;;;;;;;;;-5.00;99.90;;;;;;4918743;29;20346;-71
2022/12/17 19:01:23;;;;;;;;;;;-5.00;99.90;;;;;;4920172;29;20293;-70
2022/12/17 19:03:50;;;;;;;;;;;-5.10;99.90;;;;;;4915731;29;19927;-71
2022/12/17 19:06:17;;;;;;;;;;;-5.20;99.90;;;;;;4924052;29;19942;-68
2022/12/17 19:08:44;;;;;;;;;;;-5.20;99.90;;;;;;4924488;29;20017;-68
2022/12/17 19:11:16;;;;;;;;;;;-5.20;99.90;;;;;;4914492;29;19943;-68
2022/12/17 19:13:43;;;;;;;;;;;-5.10;99.90;;;;;;4916612;29;19927;-68
2022/12/17 19:16:11;;;;;;;;;;;-5.20;99.90;;;;;;4928222;29;19934;-69
2022/12/17 19:18:40;;;;;;;;;;;-5.30;99.90;;;;;;4924956;29;20006;-69
2022/12/17 19:21:08;;;;;;;;;;;-5.20;99.90;;;;;;4921817;29;19934;-71
2022/12/17 19:23:35;;;;;;;;;;;-5.20;99.90;;;;;;4923388;29;19934;-72
2022/12/17 19:26:05;;;;;;;;;;;-5.20;99.90;;;;;;4913485;29;19935;-71
2022/12/17 19:28:32;;;;;;;;;;;-5.20;99.90;;;;;;4918035;29;19927;-71
2022/12/17 19:30:59;;;;;;;;;;;-5.20;99.90;;;;;;4920573;29;19987;-68
2022/12/17 19:33:25;;;;;;;;;;;-5.30;99.90;;;;;;4927202;29;19930;-69
2022/12/17 19:35:59;;;;;;;;;;;-5.20;99.90;;;;;;4924843;29;19931;-68
2022/12/17 19:38:26;;;;;;;;;;;-5.20;99.90;;;;;;4923131;29;19932;-69
2022/12/17 19:40:53;;;;;;;;;;;-5.10;99.90;;;;;;4926749;29;19927;-68
2022/12/17 19:43:20;;;;;;;;;;;-5.20;99.90;;;;;;4908743;29;19926;-68
2022/12/17 19:45:47;;;;;;;;;;;-5.20;99.90;;;;;;4920032;29;19931;-69
2022/12/17 19:48:15;;;;;;;;;;;-5.30;99.90;;;;;;4923851;29;19928;-69
2022/12/17 19:50:42;;;;;;;;;;;-5.40;99.90;;;;;;4903157;29;19928;-68
2022/12/17 19:53:10;;;;;;;;;;;-5.30;99.90;;;;;;4916137;29;19928;-69
2022/12/17 19:55:37;;;;;;;;;;;-5.30;99.90;;;;;;4908560;29;19984;-70
2022/12/17 19:58:04;;;;;;;;;;;-5.20;99.90;;;;;;4921018;29;19934;-70
2022/12/17 20:00:31;;;;;;;;;;;-5.20;99.90;;;;;;4918747;29;19927;-70
2022/12/17 20:02:57;;;;;;;;;;;-5.20;99.90;;;;;;4927109;29;19931;-69
2022/12/17 20:05:24;;;;;;;;;;;-5.30;99.90;;;;;;4921711;29;19927;-69
2022/12/17 20:07:51;;;;;;;;;;;-5.40;99.90;;;;;;4921840;29;20342;-71
2022/12/17 20:10:19;;;;;;;;;;;-5.40;99.90;;;;;;4925865;29;19931;-70
2022/12/17 20:12:46;;;;;;;;;;;-5.40;99.90;;;;;;4918328;29;19931;-69
2022/12/17 20:15:13;;;;;;;;;;;-5.30;99.90;;;;;;4930175;29;19931;-70
2022/12/17 20:17:39;;;;;;;;;;;-5.40;99.90;;;;;;4916119;29;19934;-71
2022/12/17 20:20:07;;;;;;;;;;;-5.40;99.90;;;;;;4927115;29;19930;-70
2022/12/17 20:22:34;;;;;;;;;;;-5.40;99.90;;;;;;4919858;29;19927;-70
2022/12/17 20:25:03;;;;;;;;;;;-5.40;99.90;;;;;;4913262;29;20352;-69
2022/12/17 20:27:31;;;;;;;;;;;-5.40;99.90;;;;;;4923621;29;19978;-71
2022/12/17 20:29:58;;;;;;;;;;;-5.40;99.90;;;;;;4926881;29;19931;-71
2022/12/17 20:32:25;;;;;;;;;;;-5.50;99.90;;;;;;4918641;29;19949;-72
2022/12/17 20:34:52;;;;;;;;;;;-5.50;99.90;;;;;;4926234;29;19931;-73
2022/12/17 20:37:19;;;;;;;;;;;-5.50;99.90;;;;;;4921086;29;19930;-72
2022/12/17 20:39:45;;;;;;;;;;;-5.50;99.90;;;;;;4917758;29;19931;-70
2022/12/17 20:42:12;;;;;;;;;;;-5.50;99.90;;;;;;4927028;29;20346;-72
2022/12/17 20:44:41;;;;;;;;;;;-5.60;99.90;;;;;;4925614;29;19986;-75
2022/12/17 20:47:08;;;;;;;;;;;-5.60;99.90;;;;;;4923678;29;19927;-73
2022/12/17 20:49:34;;;;;;;;;;;-5.60;99.90;;;;;;4915657;29;20347;-72
2022/12/17 20:52:01;;;;;;;;;;;-5.70;99.90;;;;;;4915410;29;19935;-72
2022/12/17 20:54:28;;;;;;;;;;;-5.80;99.90;;;;;;4926015;29;19926;-72
2022/12/17 20:56:55;;;;;;;;;;;-5.80;99.90;;;;;;4925353;29;19927;-72
2022/12/17 20:59:21;;;;;;;;;;;-5.90;99.90;;;;;;4921649;29;19930;-72
2022/12/17 21:01:50;;;;;;;;;;;-5.90;99.90;;;;;;4925216;29;19927;-72
2022/12/17 21:04:16;;;;;;;;;;;-6.00;99.90;;;;;;4925576;29;19939;-71
2022/12/17 21:06:44;;;;;;;;;;;-6.00;99.90;;;;;;4927093;29;19934;-72
2022/12/17 21:09:11;;;;;;;;;;;-6.10;99.90;;;;;;4919535;29;19927;-72
2022/12/17 21:11:39;;;;;;;;;;;-6.10;99.90;;;;;;4927963;29;20401;-74
2022/12/17 21:14:06;;;;;;;;;;;-6.20;99.90;;;;;;4923979;29;20310;-69
2022/12/17 21:16:33;;;;;;;;;;;-6.20;99.90;;;;;;4913994;29;19934;-71
2022/12/17 21:19:02;;;;;;;;;;;-6.20;99.90;;;;;;4920015;29;20458;-71
2022/12/17 21:21:30;;;;;;;;;;;-6.30;99.90;;;;;;4919210;29;19927;-73
2022/12/17 21:23:58;;;;;;;;;;;-6.30;99.90;;;;;;4926114;29;19926;-72
2022/12/17 21:26:25;;;;;;;;;;;-6.30;99.90;;;;;;4915465;29;19966;-70
2022/12/17 21:28:53;;;;;;;;;;;-6.30;99.90;;;;;;4924743;29;19998;-73
2022/12/17 21:31:20;;;;;;;;;;;-6.20;99.90;;;;;;4921452;29;19931;-71
2022/12/17 21:33:47;;;;;;;;;;;-5.90;99.90;;;;;;4917327;29;20314;-70
2022/12/17 21:36:16;;;;;;;;;;;-5.60;99.90;;;;;;4920655;29;19974;-72
2022/12/17 21:38:43;;;;;;;;;;;-5.50;99.90;;;;;;4920331;29;19934;-70
2022/12/17 21:41:11;;;;;;;;;;;-5.30;99.90;;;;;;4917205;29;19931;-70
2022/12/17 21:43:38;;;;;;;;;;;-5.20;99.90;;;;;;4917859;29;19931;-69
2022/12/17 21:46:06;;;;;;;;;;;-5.10;99.90;;;;;;4917569;29;19928;-70
2022/12/17 21:48:33;;;;;;;;;;;-5.00;99.90;;;;;;4916814;29;20445;-70
2022/12/17 21:51:00;;;;;;;;;;;-5.00;99.90;;;;;;4912383;29;19935;-70
2022/12/17 21:53:28;;;;;;;;;;;-5.00;99.90;;;;;;4931126;29;19943;-71
2022/12/17 21:56:01;;;;;;;;;;;-5.00;99.90;;;;;;4922446;29;19927;-71
2022/12/17 21:58:28;;;;;;;;;;;-5.20;99.90;;;;;;4923725;29;19927;-68
